createdAt,value
2019-03-18T00:04:29.290Z,142315.09
2019-03-18T00:09:25.202Z,142304.56
2019-03-18T00:14:21.114Z,142302.22
2019-03-18T00:19:17.040Z,142306.91
2019-03-18T00:24:21.193Z,142303.41
2019-03-18T00:29:17.323Z,142298.72
2019-03-18T00:34:13.203Z,142283.53
2019-03-18T00:39:09.122Z,142291.72
2019-03-18T00:44:05.052Z,142282.39
2019-03-18T00:49:00.960Z,142289.37
2019-03-18T00:54:02.097Z,142290.58
2019-03-18T00:58:58.058Z,142289.37
2019-03-18T01:03:54.030Z,142284.73
2019-03-18T01:08:49.940Z,142284.73
2019-03-18T01:13:45.848Z,142271.91
2019-03-18T01:18:41.753Z,142274.25
2019-03-18T01:23:37.658Z,142289.37
2019-03-18T01:28:33.566Z,142296.42
2019-03-18T01:33:29.475Z,142296.42
2019-03-18T01:38:25.535Z,142299.91
2019-03-18T01:43:21.479Z,142303.41
2019-03-18T01:48:17.391Z,142312.75
2019-03-18T01:53:13.308Z,142308.05
2019-03-18T01:58:09.249Z,142322.09
2019-03-18T02:03:05.155Z,142331.42
2019-03-18T02:08:01.064Z,142338.42
2019-03-18T02:12:57.022Z,142347.75
2019-03-18T02:17:52.932Z,142354.75
2019-03-18T02:22:48.837Z,142380.47
2019-03-18T02:27:44.746Z,142401.45
2019-03-18T02:32:40.659Z,142408.50
2019-03-18T02:37:36.599Z,142417.84
2019-03-18T02:42:32.507Z,142422.48
2019-03-18T02:47:28.426Z,142427.17
2019-03-18T02:52:24.609Z,142434.17
2019-03-18T02:57:20.596Z,142431.83
2019-03-18T03:02:16.509Z,142387.47
2019-03-18T03:07:12.431Z,142341.91
2019-03-18T03:12:08.340Z,142312.75
2019-03-18T03:17:04.354Z,142254.38
2019-03-18T03:22:00.262Z,142232.20
2019-03-18T03:26:56.434Z,142235.70
2019-03-18T03:31:52.404Z,142242.69
2019-03-18T03:36:48.320Z,142249.73
2019-03-18T03:41:44.252Z,142266.06
2019-03-18T03:46:43.465Z,142270.70
2019-03-18T03:51:37.954Z,142274.25
2019-03-18T03:56:33.968Z,142277.75
2019-03-18T04:01:29.970Z,142278.89
2019-03-18T04:06:25.973Z,142281.23
2019-03-18T04:11:21.885Z,142275.39
2019-03-18T04:16:17.781Z,142281.23
2019-03-18T04:21:13.683Z,142280.05
2019-03-18T04:26:09.602Z,142294.06
2019-03-18T04:31:05.598Z,142287.08
2019-03-18T04:36:01.522Z,142298.72
2019-03-18T04:40:57.541Z,142301.06
2019-03-18T04:45:53.454Z,142301.06
2019-03-18T04:50:49.363Z,142312.75
2019-03-18T04:55:45.338Z,142318.59
2019-03-18T05:00:41.248Z,142309.25
2019-03-18T05:05:37.228Z,142326.73
2019-03-18T05:10:33.147Z,142337.27
2019-03-18T05:15:29.055Z,142345.41
2019-03-18T05:20:24.967Z,142345.41
2019-03-18T05:25:20.951Z,142336.06
2019-03-18T05:30:16.874Z,142340.77
2019-03-18T05:35:12.782Z,142333.77
2019-03-18T05:40:08.898Z,142338.42
2019-03-18T05:45:10.887Z,142347.75
2019-03-18T05:50:14.785Z,142340.77
2019-03-18T05:55:15.953Z,142343.11
2019-03-18T06:00:14.001Z,142348.91
2019-03-18T06:05:10.192Z,142350.11
2019-03-18T06:10:08.459Z,142352.45
2019-03-18T06:15:07.268Z,142376.92
2019-03-18T06:20:06.178Z,142344.27
2019-03-18T06:25:03.600Z,142344.27
2019-03-18T06:29:59.556Z,142347.75
2019-03-18T06:34:55.586Z,142354.75
2019-03-18T06:39:51.495Z,142361.78
2019-03-18T06:44:47.431Z,142385.13
2019-03-18T06:49:43.363Z,142409.64
2019-03-18T06:54:39.959Z,142408.50
2019-03-18T06:59:35.931Z,142422.48
2019-03-18T07:04:31.850Z,142437.67
2019-03-18T07:09:27.760Z,142455.16
2019-03-18T07:14:23.672Z,142473.84
2019-03-18T07:19:19.614Z,142487.89
2019-03-18T07:24:22.514Z,142497.23
2019-03-18T07:29:18.515Z,142515.92
2019-03-18T07:34:14.541Z,142513.58
2019-03-18T07:39:10.450Z,142534.61
2019-03-18T07:44:06.364Z,142541.61
2019-03-18T07:49:02.395Z,142548.61
2019-03-18T07:54:06.303Z,142542.81
2019-03-18T07:59:02.318Z,142579.00
2019-03-18T08:03:58.241Z,142581.34
2019-03-18T08:08:54.150Z,142618.73
2019-03-18T08:13:50.055Z,142617.55
2019-03-18T08:18:45.966Z,142651.44
2019-03-18T08:23:41.841Z,142723.94
2019-03-18T08:28:37.747Z,142737.95
2019-03-18T08:33:33.658Z,142739.16
2019-03-18T08:38:29.569Z,142726.25
2019-03-18T08:43:25.477Z,142730.95
2019-03-18T08:48:21.413Z,142784.77
2019-03-18T08:53:17.426Z,142798.78
2019-03-18T08:58:13.370Z,142845.56
2019-03-18T09:03:09.271Z,142856.11
2019-03-18T09:08:05.180Z,142865.47
2019-03-18T09:13:01.239Z,142866.62
2019-03-18T09:17:57.682Z,142887.69
2019-03-18T09:22:53.604Z,142892.34
2019-03-18T09:27:49.517Z,142948.50
2019-03-18T09:32:45.527Z,142925.12
2019-03-18T09:37:41.558Z,142945.00
2019-03-18T09:42:37.468Z,142906.41
2019-03-18T09:47:33.372Z,142892.34
2019-03-18T09:52:29.279Z,142971.92
2019-03-18T09:57:26.533Z,143040.95
2019-03-18T10:02:22.630Z,143016.38
2019-03-18T10:07:18.536Z,143098.30
2019-03-18T10:12:14.441Z,143145.12
2019-03-18T10:17:10.383Z,143142.78
2019-03-18T10:22:06.266Z,143077.22
2019-03-18T10:27:02.178Z,143064.34
2019-03-18T10:31:58.942Z,143190.81
2019-03-18T10:36:54.862Z,143187.31
2019-03-18T10:41:50.767Z,143255.19
2019-03-18T10:46:46.677Z,143236.45
2019-03-18T10:51:42.581Z,143224.78
2019-03-18T10:56:41.121Z,143173.22
2019-03-18T11:01:36.354Z,143250.53
2019-03-18T11:06:32.261Z,143447.41
2019-03-18T11:11:28.169Z,143346.59
2019-03-18T11:16:24.086Z,143402.84
2019-03-18T11:21:20.095Z,143337.22
2019-03-18T11:26:16.034Z,143306.80
2019-03-18T11:31:11.948Z,143358.33
2019-03-18T11:36:07.857Z,143302.09
2019-03-18T11:41:03.763Z,143231.80
2019-03-18T11:45:59.674Z,143184.94
2019-03-18T11:50:55.600Z,142609.39
2019-03-18T11:55:51.579Z,142515.92
2019-03-18T12:00:47.454Z,142532.27
2019-03-18T12:05:43.459Z,142569.66
2019-03-18T12:10:39.873Z,142651.44
2019-03-18T12:15:36.665Z,142716.91
2019-03-18T12:20:33.315Z,142843.25
2019-03-18T12:25:29.303Z,142879.48
2019-03-18T12:30:28.268Z,142963.72
2019-03-18T12:35:24.175Z,142954.36
2019-03-18T12:40:20.279Z,142922.77
2019-03-18T12:45:17.393Z,143025.75
2019-03-18T12:50:36.854Z,143064.34
2019-03-18T12:55:21.376Z,143066.69
2019-03-18T13:00:27.005Z,143138.11
2019-03-18T13:05:23.149Z,143248.17
2019-03-18T13:10:21.475Z,143210.70
2019-03-18T13:15:18.573Z,143158.00
2019-03-18T13:20:18.812Z,143270.42
2019-03-18T13:25:15.017Z,143297.38
2019-03-18T13:30:19.774Z,143351.31
2019-03-18T13:35:15.809Z,143307.95
2019-03-18T13:40:14.663Z,143236.45
2019-03-18T13:45:13.553Z,143060.84
2019-03-18T13:50:14.454Z,143019.88
2019-03-18T13:55:10.479Z,142985.94
2019-03-18T14:00:14.281Z,142945.00
2019-03-18T14:05:10.419Z,142952.00
2019-03-18T14:10:31.149Z,142997.66
2019-03-18T14:15:27.157Z,143009.38
2019-03-18T14:20:24.271Z,143066.69
2019-03-18T14:25:20.248Z,143098.30
2019-03-18T14:30:18.675Z,143141.62
2019-03-18T14:35:14.718Z,143145.12
2019-03-18T14:40:24.119Z,143133.41
2019-03-18T14:45:23.374Z,143193.11
2019-03-18T14:50:19.705Z,143303.30
2019-03-18T14:55:16.750Z,143264.56
2019-03-18T15:00:39.126Z,143318.53
2019-03-18T15:05:36.966Z,143297.38
2019-03-18T15:10:32.880Z,143302.09
2019-03-18T15:15:28.808Z,143373.56
2019-03-18T15:20:27.245Z,143311.47
2019-03-18T15:25:27.854Z,143359.53
2019-03-18T15:30:23.871Z,143320.84
2019-03-18T15:35:19.819Z,143261.06
2019-03-18T15:40:21.304Z,143239.97
2019-03-18T15:45:21.083Z,143242.31
2019-03-18T15:50:20.975Z,143289.17
2019-03-18T15:55:17.738Z,143299.73
2019-03-18T16:00:22.473Z,143285.66
2019-03-18T16:05:18.489Z,143306.80
2019-03-18T16:10:15.632Z,143285.66
2019-03-18T16:15:13.319Z,143281.00
2019-03-18T16:20:14.941Z,143320.84
2019-03-18T16:25:11.040Z,143317.33
2019-03-18T16:30:10.900Z,143241.16
2019-03-18T16:35:09.233Z,143234.14
2019-03-18T16:40:08.517Z,143214.20
2019-03-18T16:45:10.300Z,143194.31
2019-03-18T16:50:10.240Z,143261.06
2019-03-18T16:55:10.429Z,143172.08
2019-03-18T17:00:11.379Z,143250.53
2019-03-18T17:05:08.366Z,143200.17
2019-03-18T17:10:13.706Z,143196.67
2019-03-18T17:15:11.027Z,143112.37
2019-03-18T17:20:13.646Z,143095.94
2019-03-18T17:25:19.432Z,143044.47
2019-03-18T17:30:16.934Z,143012.88
2019-03-18T17:35:13.058Z,143009.38
2019-03-18T17:40:12.873Z,142980.08
2019-03-18T17:45:13.447Z,142945.00
2019-03-18T17:50:16.618Z,142947.34
2019-03-18T17:55:19.311Z,142929.78
2019-03-18T18:00:19.072Z,142878.33
2019-03-18T18:05:15.085Z,142864.27
2019-03-18T18:10:11.157Z,142859.63
2019-03-18T18:15:08.361Z,142826.84
2019-03-18T18:20:07.196Z,142826.84
2019-03-18T18:25:07.772Z,142801.13
2019-03-18T18:30:09.503Z,142805.83
2019-03-18T18:35:09.357Z,142766.06
2019-03-18T18:40:09.089Z,142749.70
2019-03-18T18:45:06.809Z,142725.09
2019-03-18T18:50:05.231Z,142733.25
2019-03-18T18:55:07.447Z,142716.91
2019-03-18T19:00:09.711Z,142697.05
2019-03-18T19:05:08.537Z,142647.94
2019-03-18T19:10:07.676Z,142645.59
2019-03-18T19:15:07.368Z,142608.19
2019-03-18T19:20:07.114Z,142617.55
2019-03-18T19:25:07.215Z,142618.73
2019-03-18T19:30:12.704Z,142602.39
2019-03-18T19:35:08.768Z,142595.34
2019-03-18T19:40:13.545Z,142624.59
2019-03-18T19:45:11.366Z,142587.19
2019-03-18T19:50:35.093Z,142572.00
2019-03-18T19:55:31.780Z,142539.27
2019-03-18T20:00:29.072Z,142471.55
2019-03-18T20:05:25.123Z,142326.73
2019-03-18T20:10:21.442Z,142249.73
2019-03-18T20:15:18.157Z,142177.34
2019-03-18T20:20:15.500Z,142147.06
2019-03-18T20:25:12.472Z,142126.05
2019-03-18T20:30:14.045Z,142214.69
2019-03-18T20:35:15.584Z,142156.38
2019-03-18T20:40:13.006Z,142191.38
2019-03-18T20:45:17.092Z,142184.39
2019-03-18T20:50:18.460Z,142081.73
2019-03-18T20:55:15.276Z,142207.69
2019-03-18T21:00:17.032Z,142105.03
2019-03-18T21:05:12.937Z,141991.94
2019-03-18T21:10:11.979Z,141932.48
2019-03-18T21:15:10.822Z,141932.48
2019-03-18T21:20:10.142Z,141873.05
2019-03-18T21:25:06.760Z,141955.78
2019-03-18T21:30:17.422Z,142074.75
2019-03-18T21:35:13.340Z,141954.63
2019-03-18T21:40:11.367Z,141853.20
2019-03-18T21:45:10.390Z,141913.84
2019-03-18T21:50:07.909Z,141946.45
2019-03-18T21:55:06.219Z,141848.56
2019-03-18T22:00:05.523Z,141792.64
2019-03-18T22:05:01.540Z,141709.92
2019-03-18T22:09:57.451Z,141706.44
2019-03-18T22:14:53.374Z,141675.00
2019-03-18T22:19:49.320Z,141629.61
2019-03-18T22:24:45.972Z,141622.59
2019-03-18T22:29:41.900Z,141599.33
2019-03-18T22:34:37.814Z,141543.45
2019-03-18T22:39:33.807Z,141631.91
2019-03-18T22:44:29.740Z,141720.44
2019-03-18T22:49:25.675Z,141656.36
2019-03-18T22:54:24.425Z,141712.27
2019-03-18T22:59:20.458Z,141736.72
2019-03-18T23:04:16.476Z,141708.78
2019-03-18T23:09:12.394Z,141596.98
2019-03-18T23:14:08.344Z,141529.50
2019-03-18T23:19:04.266Z,141496.91
2019-03-18T23:24:03.669Z,141492.27
2019-03-18T23:28:59.735Z,141600.47
2019-03-18T23:33:55.684Z,141642.41
2019-03-18T23:38:51.601Z,141626.12
2019-03-18T23:43:47.515Z,141499.25
2019-03-18T23:48:43.577Z,141445.72
2019-03-18T23:53:40.039Z,141445.72
2019-03-18T23:58:36.024Z,141455.03
